Time;durP1;ratioP1;P1;durP2;ratioP2;P2;SDS_P1;SDS_P2;PMS_P1;PMS_P2;Temp;Humidity;BMP_temperature;BMP_pressure;BME280_temperature;BME280_humidity;BME280_pressure;Samples;Min_cycle;Max_cycle;Signal;HPM_P1;HPM_P2
2022/01/25 00:28:46;;;;;;;12.00;6.82;;;3.10;53.80;;;;;;5103579;27;34153;-76
2022/01/25 00:31:13;;;;;;;10.32;6.28;;;3.10;53.80;;;;;;5100487;28;34564;-76
2022/01/25 00:33:51;;;;;;;10.82;6.80;;;3.10;53.80;;;;;;5086895;28;34144;-76
2022/01/25 00:36:20;;;;;;;10.50;6.47;;;3.10;53.70;;;;;;5102792;27;34339;-76
2022/01/25 00:38:47;;;;;;;11.95;6.78;;;3.10;53.60;;;;;;5085468;28;34149;-76
2022/01/25 00:41:14;;;;;;;11.68;6.85;;;3.10;53.60;;;;;;5102041;28;34228;-76
2022/01/25 00:43:40;;;;;;;10.35;6.38;;;3.10;53.70;;;;;;5086014;28;34184;-76
2022/01/25 00:46:11;;;;;;;10.23;6.28;;;3.00;53.60;;;;;;5085142;28;36659;-76
2022/01/25 00:48:44;;;;;;;9.77;6.18;;;3.10;53.70;;;;;;5085184;28;34155;-76
2022/01/25 00:51:24;;;;;;;11.20;6.38;;;3.10;53.70;;;;;;5118967;27;34422;-76
2022/01/25 00:54:02;;;;;;;8.77;5.97;;;3.00;53.70;;;;;;5085541;28;34662;-76
2022/01/25 00:56:34;;;;;;;11.75;5.88;;;3.00;53.80;;;;;;5100079;28;36660;-76
2022/01/25 00:59:03;;;;;;;10.02;6.35;;;3.00;53.80;;;;;;5119056;27;34160;-76
2022/01/25 01:01:30;;;;;;;10.27;6.13;;;2.90;53.90;;;;;;5103145;27;34349;-76
2022/01/25 01:03:57;;;;;;;11.02;6.35;;;2.90;53.90;;;;;;5102604;28;34259;-76
2022/01/25 01:06:24;;;;;;;12.68;6.68;;;2.90;53.90;;;;;;5084699;28;35888;-75
2022/01/25 01:08:50;;;;;;;10.15;6.38;;;2.90;54.00;;;;;;5085204;28;34124;-76
2022/01/25 01:11:25;;;;;;;11.80;6.47;;;2.90;54.00;;;;;;5102800;28;34261;-77
2022/01/25 01:13:59;;;;;;;10.00;6.63;;;2.90;54.10;;;;;;5118876;27;34238;-76
2022/01/25 01:30:06;;;;;;;10.93;5.85;;;2.80;54.10;;;;;;5106319;27;34162;-76
2022/01/25 01:35:39;;;;;;;8.40;5.45;;;2.70;54.20;;;;;;5106697;27;34088;-76
2022/01/25 01:38:17;;;;;;;10.85;6.47;;;2.70;54.20;;;;;;5091159;27;34900;-76
2022/01/25 01:41:00;;;;;;;10.05;5.75;;;2.70;54.20;;;;;;5106800;27;34182;-76
2022/01/25 01:43:30;;;;;;;9.93;6.03;;;2.70;54.10;;;;;;5088698;28;34155;-76
2022/01/25 01:46:06;;;;;;;9.50;5.72;;;2.70;54.10;;;;;;5088308;28;34302;-76
2022/01/25 01:48:38;;;;;;;10.32;6.07;;;2.70;54.10;;;;;;5120987;27;34212;-76
2022/01/25 01:51:15;;;;;;;9.63;5.63;;;2.70;54.20;;;;;;5106184;27;34129;-76
2022/01/25 01:53:42;;;;;;;9.80;6.40;;;2.60;54.10;;;;;;5121647;27;34415;-76
2022/01/25 01:56:09;;;;;;;11.30;5.40;;;2.60;54.10;;;;;;5087623;28;34044;-76
2022/01/25 01:58:36;;;;;;;9.50;5.78;;;2.60;54.10;;;;;;5087721;27;35705;-76
2022/01/25 02:01:06;;;;;;;7.68;5.13;;;2.60;54.10;;;;;;5087638;27;34179;-76
2022/01/25 02:03:32;;;;;;;12.85;5.85;;;2.60;54.10;;;;;;5104315;27;34356;-76
2022/01/25 02:05:58;;;;;;;10.52;5.63;;;2.60;54.20;;;;;;5105671;27;34326;-76
2022/01/25 02:08:24;;;;;;;10.07;6.05;;;2.50;54.20;;;;;;5086792;28;35538;-76
2022/01/25 02:10:50;;;;;;;9.95;5.43;;;2.50;54.20;;;;;;5105851;27;34145;-76
2022/01/25 02:13:16;;;;;;;9.45;5.90;;;2.50;54.20;;;;;;5121893;27;34282;-76
2022/01/25 02:15:45;;;;;;;9.90;5.68;;;2.50;54.30;;;;;;5103984;27;34148;-76
2022/01/25 02:23:38;;;;;;;9.02;5.53;;;2.40;54.20;;;;;;5119373;27;34274;-76
2022/01/25 02:26:07;;;;;;;8.98;5.82;;;2.40;54.20;;;;;;5086403;28;34487;-76
2022/01/25 02:28:36;;;;;;;7.57;5.18;;;2.40;54.10;;;;;;5086547;28;36530;-76
2022/01/25 02:31:04;;;;;;;8.70;5.00;;;2.40;54.20;;;;;;5121227;27;34187;-76
2022/01/25 02:33:30;;;;;;;9.60;5.53;;;2.40;54.20;;;;;;5087569;27;34511;-76
2022/01/25 02:35:58;;;;;;;8.02;5.35;;;2.40;54.20;;;;;;5104129;27;34408;-76
2022/01/25 02:38:28;;;;;;;9.32;5.68;;;2.40;54.20;;;;;;5086874;27;36650;-76
2022/01/25 02:40:56;;;;;;;8.23;5.60;;;2.30;54.10;;;;;;5104185;27;34128;-76
2022/01/25 02:43:23;;;;;;;8.65;5.22;;;2.30;54.00;;;;;;5087045;28;34263;-76
2022/01/25 02:46:06;;;;;;;10.52;5.80;;;2.30;54.00;;;;;;5105275;27;34139;-76
2022/01/25 02:48:46;;;;;;;10.02;5.03;;;2.30;54.00;;;;;;5086034;28;36502;-76
2022/01/25 02:51:12;;;;;;;6.97;5.03;;;2.30;54.10;;;;;;5104870;27;34182;-76
2022/01/25 02:53:38;;;;;;;9.10;5.60;;;2.20;54.00;;;;;;5121391;27;34216;-76
2022/01/25 02:56:04;;;;;;;7.88;4.90;;;2.30;54.10;;;;;;5105214;27;34218;-76
2022/01/25 02:58:30;;;;;;;7.20;4.68;;;2.30;54.00;;;;;;5103770;27;35828;-76
2022/01/25 03:00:56;;;;;;;8.98;5.13;;;2.20;53.90;;;;;;5104943;27;34233;-76
2022/01/25 03:03:22;;;;;;;8.02;5.18;;;2.20;53.90;;;;;;5086885;28;34913;-76
2022/01/25 03:05:48;;;;;;;8.18;5.10;;;2.20;53.80;;;;;;5087147;28;34494;-76
2022/01/25 03:08:15;;;;;;;8.27;5.25;;;2.20;53.80;;;;;;5103431;27;35692;-76
2022/01/25 03:10:44;;;;;;;8.13;5.28;;;2.20;53.90;;;;;;5086539;28;34269;-76
2022/01/25 03:13:17;;;;;;;7.32;4.80;;;2.20;53.90;;;;;;5104959;28;34469;-76
2022/01/25 03:15:57;;;;;;;7.68;5.03;;;2.20;54.00;;;;;;5104646;27;34406;-76
2022/01/25 03:18:39;;;;;;;8.57;4.65;;;2.10;54.00;;;;;;5085888;28;35171;-76
2022/01/25 03:21:21;;;;;;;8.18;5.15;;;2.10;54.00;;;;;;5087042;28;34233;-76
2022/01/25 03:23:49;;;;;;;7.35;4.57;;;2.00;53.90;;;;;;5104727;28;34296;-76
2022/01/25 03:26:15;;;;;;;10.05;4.10;;;2.00;54.00;;;;;;5086376;28;34664;-76
2022/01/25 03:28:42;;;;;;;9.05;4.95;;;1.90;54.10;;;;;;5104287;27;35496;-76
2022/01/25 03:31:08;;;;;;;7.00;4.50;;;1.90;54.00;;;;;;5103408;28;34179;-76
2022/01/25 03:33:35;;;;;;;8.45;4.85;;;1.90;54.80;;;;;;5085582;28;34158;-76
2022/01/25 03:36:02;;;;;;;5.97;4.03;;;1.90;54.10;;;;;;5086733;28;34455;-76
2022/01/25 03:38:28;;;;;;;8.75;5.30;;;1.90;54.00;;;;;;5102227;27;35846;-75
2022/01/25 03:40:54;;;;;;;6.45;4.28;;;1.90;54.10;;;;;;5104154;28;34229;-75
2022/01/25 03:43:21;;;;;;;7.20;4.65;;;1.90;54.00;;;;;;5086184;28;34287;-75
2022/01/25 03:46:04;;;;;;;7.40;4.47;;;1.80;54.00;;;;;;5104174;27;34429;-75
2022/01/25 03:51:13;;;;;;;8.13;4.22;;;1.80;54.20;;;;;;5103822;27;34257;-75
2022/01/25 03:53:39;;;;;;;6.35;4.22;;;1.70;54.30;;;;;;5103811;27;34226;-75
2022/01/25 03:56:05;;;;;;;7.28;4.32;;;1.70;54.20;;;;;;5119818;27;34277;-75
2022/01/25 03:58:31;;;;;;;8.63;4.70;;;1.70;54.20;;;;;;5119939;27;34380;-75
2022/01/25 04:00:57;;;;;;;7.72;4.70;;;1.70;54.30;;;;;;5103932;28;34226;-75
2022/01/25 04:03:31;;;;;;;6.85;4.20;;;1.70;54.20;;;;;;5101757;28;34225;-75
2022/01/25 04:05:58;;;;;;;6.35;3.80;;;1.60;54.20;;;;;;5101914;28;34181;-75
2022/01/25 04:08:24;;;;;;;9.73;4.53;;;1.60;54.20;;;;;;5103193;28;34457;-75
2022/01/25 04:10:51;;;;;;;10.27;4.40;;;1.60;54.20;;;;;;5103595;28;34243;-75
2022/01/25 04:13:18;;;;;;;8.73;4.80;;;1.60;54.20;;;;;;5119509;27;34314;-75
2022/01/25 04:15:46;;;;;;;6.60;4.05;;;1.70;54.30;;;;;;5085315;28;34186;-75
2022/01/25 04:18:24;;;;;;;8.43;4.53;;;1.70;54.30;;;;;;5085268;28;36558;-75
2022/01/25 04:21:01;;;;;;;10.55;4.28;;;1.70;54.20;;;;;;5103535;28;34321;-76
2022/01/25 04:26:08;;;;;;;5.78;4.32;;;1.80;54.00;;;;;;5103295;28;34063;-75
2022/01/25 04:28:34;;;;;;;7.50;4.50;;;1.80;53.90;;;;;;5102464;28;34471;-76
2022/01/25 04:31:00;;;;;;;7.72;4.38;;;1.80;53.90;;;;;;5085650;28;34371;-75
2022/01/25 04:33:38;;;;;;;7.70;4.25;;;1.80;54.00;;;;;;5085268;28;34249;-76
2022/01/25 04:36:38;;;;;;;6.70;4.53;;;1.80;53.90;;;;;;5103445;27;34135;-76
2022/01/25 04:49:41;;;;;;;9.13;4.70;;;1.70;54.10;;;;;;5116506;27;34140;-76
2022/01/25 04:52:12;;;;;;;11.38;4.30;;;1.70;53.90;;;;;;5084463;28;34216;-76
2022/01/25 04:54:47;;;;;;;12.55;4.88;;;1.70;53.80;;;;;;5084927;28;34341;-75
2022/01/25 04:57:26;;;;;;;12.30;4.30;;;1.60;53.70;;;;;;5100237;28;34568;-76
2022/01/25 05:00:02;;;;;;;10.02;4.85;;;1.60;53.80;;;;;;5084531;28;35896;-76
2022/01/25 05:05:19;;;;;;;11.48;4.40;;;1.60;54.10;;;;;;5102844;28;34376;-76
2022/01/25 05:07:56;;;;;;;6.07;4.03;;;1.60;54.00;;;;;;5100565;28;34272;-76
2022/01/25 05:10:23;;;;;;;11.10;4.78;;;1.60;54.00;;;;;;5084577;27;35761;-76
2022/01/25 05:13:08;;;;;;;11.88;4.85;;;1.70;54.10;;;;;;5084860;28;34513;-76
2022/01/25 05:18:23;;;;;;;15.20;4.68;;;1.60;53.90;;;;;;5102799;28;35265;-76
2022/01/25 05:23:30;;;;;;;17.77;4.22;;;1.60;53.90;;;;;;5103365;28;34311;-76
2022/01/25 05:25:56;;;;;;;16.33;4.47;;;1.60;53.80;;;;;;5101597;28;34189;-76
2022/01/25 05:28:23;;;;;;;20.02;4.32;;;1.50;53.80;;;;;;5101400;27;34167;-76
2022/01/25 05:30:49;;;;;;;8.77;4.20;;;1.50;53.90;;;;;;5101737;28;35769;-76
2022/01/25 05:33:15;;;;;;;6.93;4.70;;;1.50;54.00;;;;;;5119934;27;34172;-76
2022/01/25 05:35:41;;;;;;;5.95;3.85;;;1.50;53.90;;;;;;5103531;27;34132;-77
2022/01/25 05:38:07;;;;;;;15.10;4.93;;;1.50;54.10;;;;;;5087795;28;34179;-77
2022/01/25 05:46:12;;;;;;;9.45;4.25;;;1.50;54.10;;;;;;5089646;28;34196;-77
2022/01/25 05:48:39;;;;;;;11.15;4.80;;;1.50;54.20;;;;;;5105780;28;34199;-77
2022/01/25 05:51:05;;;;;;;11.05;4.18;;;1.50;53.90;;;;;;5084549;28;36395;-77
2022/01/25 05:53:31;;;;;;;8.85;3.95;;;1.50;54.10;;;;;;5120081;27;34177;-77
2022/01/25 05:55:58;;;;;;;7.35;4.60;;;1.50;54.10;;;;;;5103741;28;34178;-77
2022/01/25 05:58:24;;;;;;;15.52;4.50;;;1.40;54.00;;;;;;5103643;28;33820;-77
2022/01/25 06:00:51;;;;;;;6.60;3.90;;;1.40;54.00;;;;;;5085322;27;36014;-77
2022/01/25 06:03:17;;;;;;;9.10;4.40;;;1.40;54.10;;;;;;5089925;28;34163;-77
2022/01/25 06:05:43;;;;;;;5.97;3.50;;;1.40;54.20;;;;;;5107413;28;34237;-77
2022/01/25 06:08:10;;;;;;;10.27;4.45;;;1.50;54.10;;;;;;5107233;28;34308;-77
2022/01/25 06:10:37;;;;;;;18.02;4.18;;;1.40;53.90;;;;;;5089630;28;35813;-77
2022/01/25 06:13:03;;;;;;;7.85;4.25;;;1.40;53.90;;;;;;5124180;27;34456;-77
2022/01/25 06:15:30;;;;;;;6.20;3.90;;;1.40;53.90;;;;;;5089500;28;34415;-77
2022/01/25 06:17:56;;;;;;;8.38;3.92;;;1.40;53.90;;;;;;5090788;28;34367;-77
2022/01/25 06:20:22;;;;;;;8.05;3.97;;;1.40;53.80;;;;;;5107267;27;35818;-77
2022/01/25 06:22:49;;;;;;;10.90;4.30;;;1.40;54.10;;;;;;5091036;28;34322;-77
2022/01/25 06:25:16;;;;;;;15.18;4.10;;;1.40;53.90;;;;;;5110288;27;34394;-78
2022/01/25 06:27:43;;;;;;;8.20;4.50;;;1.30;54.00;;;;;;5108378;27;34179;-78
2022/01/25 06:30:13;;;;;;;8.35;3.70;;;1.30;54.10;;;;;;5107605;28;35841;-77
2022/01/25 06:32:39;;;;;;;6.68;4.25;;;1.30;54.20;;;;;;5108643;28;34226;-77
2022/01/25 06:35:06;;;;;;;7.97;3.95;;;1.30;54.30;;;;;;5108840;28;34186;-78
2022/01/25 06:37:32;;;;;;;6.95;4.10;;;1.30;54.20;;;;;;5108017;27;34127;-78
2022/01/25 06:39:59;;;;;;;8.90;4.38;;;1.30;54.10;;;;;;5090820;28;35943;-78
2022/01/25 06:42:30;;;;;;;9.75;4.05;;;1.30;54.00;;;;;;5090707;28;34411;-78
2022/01/25 06:45:00;;;;;;;24.13;4.28;;;1.40;54.00;;;;;;5108934;27;34314;-78
2022/01/25 06:47:26;;;;;;;21.50;4.72;;;1.30;54.00;;;;;;5106780;27;34244;-77
2022/01/25 06:49:52;;;;;;;13.23;4.18;;;1.30;53.90;;;;;;5107890;27;34253;-78
2022/01/25 06:52:18;;;;;;;9.57;4.43;;;1.30;54.10;;;;;;5107031;27;34302;-78
2022/01/25 06:54:44;;;;;;;6.50;4.20;;;1.30;54.00;;;;;;5106714;28;34230;-78
2022/01/25 06:57:10;;;;;;;8.35;3.95;;;1.30;53.90;;;;;;5089511;28;34112;-78
2022/01/25 06:59:38;;;;;;;7.88;3.72;;;1.20;53.90;;;;;;5087474;28;35916;-78
2022/01/25 07:02:05;;;;;;;8.00;3.95;;;1.20;53.90;;;;;;5122414;27;34313;-78
2022/01/25 07:04:31;;;;;;;9.35;4.15;;;1.20;53.90;;;;;;5088412;28;34252;-78
2022/01/25 07:06:57;;;;;;;13.50;3.97;;;1.10;54.00;;;;;;5106807;27;34376;-78
2022/01/25 07:09:23;;;;;;;6.30;3.83;;;1.10;54.10;;;;;;5104426;28;35754;-78
2022/01/25 07:11:49;;;;;;;20.45;4.10;;;1.10;54.00;;;;;;5088449;28;34317;-78
2022/01/25 07:14:15;;;;;;;15.55;3.78;;;1.10;54.00;;;;;;5087903;28;34300;-78
2022/01/25 07:16:41;;;;;;;5.60;3.40;;;1.00;53.80;;;;;;5123947;27;34594;-78
2022/01/25 07:19:07;;;;;;;6.63;4.43;;;1.00;54.10;;;;;;5106122;27;35564;-78
2022/01/25 07:21:33;;;;;;;6.50;4.00;;;1.10;54.30;;;;;;5123529;27;34173;-77
2022/01/25 07:23:59;;;;;;;6.57;4.25;;;1.00;54.00;;;;;;5107265;28;34214;-78
2022/01/25 07:26:25;;;;;;;9.50;3.65;;;1.10;54.10;;;;;;5091104;28;34188;-78
2022/01/25 07:28:51;;;;;;;11.65;4.45;;;1.00;54.00;;;;;;5086965;28;35679;-78
2022/01/25 07:31:17;;;;;;;6.15;3.83;;;1.00;53.90;;;;;;5087734;28;34151;-77
2022/01/25 07:33:43;;;;;;;6.07;3.80;;;1.00;54.10;;;;;;5089223;28;34333;-77
2022/01/25 07:36:12;;;;;;;5.88;4.18;;;1.00;54.20;;;;;;5088721;28;34550;-78
2022/01/25 07:38:38;;;;;;;6.38;3.88;;;1.00;54.20;;;;;;5104440;27;35960;-78
2022/01/25 07:41:04;;;;;;;8.20;4.05;;;1.00;54.30;;;;;;5103362;27;34463;-78
2022/01/25 07:43:30;;;;;;;7.15;4.10;;;1.00;54.20;;;;;;5103433;28;34106;-78
2022/01/25 07:45:58;;;;;;;12.98;4.10;;;1.00;54.20;;;;;;5089437;28;34213;-78
2022/01/25 07:48:25;;;;;;;4.60;3.40;;;1.00;54.20;;;;;;5086996;27;34920;-77
2022/01/25 07:50:51;;;;;;;8.63;3.70;;;1.10;54.20;;;;;;5086273;28;34476;-78
2022/01/25 07:53:17;;;;;;;11.02;4.35;;;1.00;54.00;;;;;;5103662;27;33755;-78
2022/01/25 07:55:43;;;;;;;9.20;3.63;;;1.00;54.00;;;;;;5070367;28;34465;-78
2022/01/25 07:58:09;;;;;;;7.88;4.78;;;1.00;54.10;;;;;;5103164;27;36395;-78
2022/01/25 08:00:35;;;;;;;6.70;4.03;;;1.00;54.10;;;;;;5086942;28;34172;-78
2022/01/25 08:03:01;;;;;;;8.25;3.63;;;1.00;54.20;;;;;;5104645;27;34522;-78
2022/01/25 08:05:27;;;;;;;8.98;4.10;;;1.00;54.30;;;;;;5104434;28;34110;-78
2022/01/25 08:07:54;;;;;;;6.70;4.22;;;1.10;54.40;;;;;;5101457;28;35763;-78
2022/01/25 08:10:21;;;;;;;5.22;3.72;;;1.10;54.30;;;;;;5084099;28;34116;-78
2022/01/25 08:12:47;;;;;;;6.82;4.47;;;1.10;54.30;;;;;;5085976;28;34111;-78
2022/01/25 08:15:14;;;;;;;8.63;3.83;;;1.10;54.30;;;;;;5085424;28;34193;-77
2022/01/25 08:17:40;;;;;;;13.90;3.63;;;1.20;54.00;;;;;;5100907;28;35918;-77
2022/01/25 08:20:06;;;;;;;7.65;3.83;;;1.10;53.80;;;;;;5086295;28;34250;-77
2022/01/25 08:22:34;;;;;;;9.57;3.70;;;1.20;53.70;;;;;;5101740;28;34431;-78
2022/01/25 08:25:00;;;;;;;12.40;4.68;;;1.10;53.50;;;;;;5084852;28;34180;-78
2022/01/25 08:27:27;;;;;;;12.10;4.10;;;1.00;53.60;;;;;;5102617;28;36566;-77
2022/01/25 08:29:54;;;;;;;12.10;4.05;;;1.00;53.80;;;;;;5084785;28;34166;-78
2022/01/25 08:32:20;;;;;;;6.88;4.35;;;1.00;54.00;;;;;;5100421;27;33766;-77
2022/01/25 08:34:47;;;;;;;11.18;4.10;;;1.00;54.00;;;;;;5084158;28;34149;-78
2022/01/25 08:37:14;;;;;;;9.52;4.03;;;1.00;53.90;;;;;;5083893;28;36002;-78
2022/01/25 08:39:40;;;;;;;10.80;3.63;;;1.10;54.10;;;;;;5100665;28;34147;-78
2022/01/25 08:42:08;;;;;;;6.35;3.50;;;1.10;54.00;;;;;;5085685;28;34178;-78
2022/01/25 08:44:34;;;;;;;9.23;3.83;;;1.10;53.90;;;;;;5100606;27;34526;-78
2022/01/25 08:47:01;;;;;;;8.75;3.97;;;1.10;54.00;;;;;;5100441;28;36067;-77
2022/01/25 08:49:30;;;;;;;5.68;3.72;;;1.10;54.20;;;;;;5101318;27;34529;-78
2022/01/25 08:51:56;;;;;;;6.82;3.53;;;1.20;54.00;;;;;;5101476;27;34032;-78
2022/01/25 08:54:22;;;;;;;8.57;4.03;;;1.10;54.00;;;;;;5101599;28;34273;-78
2022/01/25 08:56:48;;;;;;;10.45;4.78;;;1.10;53.80;;;;;;5101088;28;36779;-78
2022/01/25 08:59:14;;;;;;;9.15;4.15;;;1.20;53.90;;;;;;5085302;28;34315;-78
2022/01/25 09:01:40;;;;;;;10.77;4.18;;;1.20;54.00;;;;;;5085269;28;34275;-78
2022/01/25 09:04:07;;;;;;;5.10;3.70;;;1.20;54.00;;;;;;5101106;28;34084;-78
2022/01/25 09:06:33;;;;;;;6.30;3.92;;;1.20;54.10;;;;;;5101657;28;35607;-78
2022/01/25 09:09:02;;;;;;;7.00;3.85;;;1.30;54.00;;;;;;5101151;28;34071;-78
2022/01/25 09:11:28;;;;;;;6.10;4.25;;;1.20;54.00;;;;;;5100952;28;34293;-77
2022/01/25 09:13:54;;;;;;;5.65;3.60;;;1.20;53.90;;;;;;5084066;28;34189;-78
2022/01/25 09:16:20;;;;;;;10.98;3.83;;;1.30;54.00;;;;;;5083874;28;34297;-78
2022/01/25 09:18:46;;;;;;;5.63;4.07;;;1.30;53.80;;;;;;5083697;28;34454;-77
2022/01/25 09:21:13;;;;;;;10.65;4.28;;;1.30;53.90;;;;;;5083102;28;34341;-78
2022/01/25 09:23:39;;;;;;;10.10;4.82;;;1.30;54.00;;;;;;5084318;28;34281;-77
2022/01/25 09:26:06;;;;;;;7.47;4.40;;;1.30;53.90;;;;;;5082205;28;35544;-78
2022/01/25 09:28:32;;;;;;;6.05;4.03;;;1.30;54.10;;;;;;5089275;27;34078;-78
2022/01/25 09:30:58;;;;;;;8.50;4.00;;;1.40;54.30;;;;;;5085955;28;34227;-78
2022/01/25 09:33:25;;;;;;;6.65;4.15;;;1.50;54.40;;;;;;5103708;28;34104;-77
2022/01/25 09:35:53;;;;;;;11.85;4.07;;;1.50;54.20;;;;;;5087564;28;35161;-78
2022/01/25 09:38:19;;;;;;;7.00;4.55;;;1.60;54.00;;;;;;5089839;28;34238;-78
2022/01/25 09:40:45;;;;;;;7.78;4.22;;;1.60;53.80;;;;;;5090542;28;34109;-78
2022/01/25 09:43:12;;;;;;;9.05;4.40;;;1.70;53.90;;;;;;5089502;28;34380;-78
2022/01/25 09:45:38;;;;;;;7.13;4.85;;;1.70;53.80;;;;;;5107244;28;34550;-78
2022/01/25 09:48:06;;;;;;;7.03;4.97;;;1.80;53.70;;;;;;5089574;28;34364;-78
2022/01/25 09:50:32;;;;;;;6.13;3.70;;;1.80;53.70;;;;;;5089341;28;34611;-78
2022/01/25 09:53:00;;;;;;;9.63;4.60;;;1.90;53.70;;;;;;5088991;28;34879;-78
2022/01/25 09:55:30;;;;;;;6.88;4.72;;;1.90;53.40;;;;;;5106755;28;34179;-78
2022/01/25 09:57:56;;;;;;;6.82;4.13;;;1.90;53.40;;;;;;5106152;27;34137;-78
2022/01/25 10:00:30;;;;;;;16.58;4.80;;;1.90;53.20;;;;;;5089136;28;34154;-78
2022/01/25 10:03:10;;;;;;;7.82;4.03;;;1.90;53.40;;;;;;5072890;28;34474;-78
2022/01/25 10:05:41;;;;;;;5.80;3.95;;;1.90;53.20;;;;;;5089016;28;35519;-78
2022/01/25 10:08:11;;;;;;;6.03;4.18;;;1.90;53.30;;;;;;5088971;28;34191;-77
2022/01/25 10:10:42;;;;;;;8.48;4.95;;;1.90;53.60;;;;;;5107939;28;34168;-78
2022/01/25 10:13:16;;;;;;;8.07;3.92;;;2.00;53.40;;;;;;5107381;28;34465;-78
2022/01/25 10:15:44;;;;;;;7.47;4.60;;;2.00;53.10;;;;;;5090599;28;36489;-78
2022/01/25 10:18:10;;;;;;;6.53;4.07;;;2.00;53.10;;;;;;5107280;28;34222;-78
2022/01/25 10:20:40;;;;;;;5.72;3.97;;;2.00;52.80;;;;;;5090532;28;34095;-78
2022/01/25 10:23:14;;;;;;;6.40;4.03;;;2.00;53.00;;;;;;5090158;28;34269;-78
2022/01/25 10:25:43;;;;;;;7.68;4.40;;;2.00;53.20;;;;;;5090680;28;36312;-78
2022/01/25 10:28:12;;;;;;;7.32;4.50;;;2.00;53.20;;;;;;5109020;28;34129;-77
2022/01/25 10:30:48;;;;;;;8.57;4.93;;;2.10;53.50;;;;;;5091364;28;34163;-77
2022/01/25 10:33:36;;;;;;;6.25;4.65;;;2.10;53.40;;;;;;5125604;27;34078;-78
2022/01/25 10:36:19;;;;;;;9.68;4.47;;;2.10;53.20;;;;;;5091209;28;36367;-77
2022/01/25 10:38:47;;;;;;;10.00;4.70;;;2.10;53.30;;;;;;5106403;28;34255;-78
2022/01/25 10:41:16;;;;;;;7.57;4.22;;;2.20;53.50;;;;;;5123918;27;34301;-78
2022/01/25 10:43:44;;;;;;;8.98;4.72;;;2.20;53.00;;;;;;5090524;28;34108;-78
2022/01/25 10:46:15;;;;;;;8.35;5.25;;;2.10;52.90;;;;;;5108935;28;34140;-78
2022/01/25 10:48:45;;;;;;;9.48;5.43;;;2.20;53.00;;;;;;5123357;27;34193;-78
2022/01/25 10:51:16;;;;;;;7.90;4.85;;;2.20;53.20;;;;;;5107370;28;34285;-78
2022/01/25 10:53:43;;;;;;;6.68;4.55;;;2.20;53.20;;;;;;5090469;28;34445;-77
2022/01/25 10:56:10;;;;;;;10.13;4.72;;;2.20;53.30;;;;;;5107895;28;34115;-77
2022/01/25 10:58:41;;;;;;;10.23;5.32;;;2.20;53.40;;;;;;5105775;28;34289;-77
2022/01/25 11:01:10;;;;;;;11.75;5.30;;;2.30;53.40;;;;;;5089884;28;34299;-78
2022/01/25 11:03:40;;;;;;;8.68;5.22;;;2.30;53.50;;;;;;5089112;28;34160;-77
2022/01/25 11:06:16;;;;;;;8.02;4.85;;;2.30;53.30;;;;;;5088033;28;36846;-78
2022/01/25 11:08:45;;;;;;;9.38;5.50;;;2.40;53.50;;;;;;5087175;28;34293;-78
2022/01/25 11:11:23;;;;;;;10.43;5.63;;;2.40;53.20;;;;;;5106033;27;34224;-77
2022/01/25 11:13:50;;;;;;;12.02;6.10;;;2.50;53.30;;;;;;5071067;28;34144;-77
2022/01/25 11:16:16;;;;;;;12.18;6.70;;;2.50;53.50;;;;;;5086705;28;35740;-77
2022/01/25 11:18:42;;;;;;;10.95;6.30;;;2.50;53.10;;;;;;5104180;28;34344;-77
2022/01/25 11:21:11;;;;;;;14.05;7.03;;;2.50;53.10;;;;;;5086382;28;34333;-77
2022/01/25 11:23:41;;;;;;;10.35;6.30;;;2.50;53.20;;;;;;5104634;28;34019;-77
2022/01/25 11:26:10;;;;;;;10.05;5.63;;;2.50;53.10;;;;;;5086864;28;36471;-77
2022/01/25 11:28:37;;;;;;;17.20;6.95;;;2.50;53.20;;;;;;5086511;28;34104;-77
2022/01/25 11:31:09;;;;;;;10.00;5.68;;;2.40;53.00;;;;;;5087191;28;34241;-77
2022/01/25 11:33:41;;;;;;;12.65;5.53;;;2.50;53.30;;;;;;5087041;28;34400;-77
2022/01/25 11:36:08;;;;;;;10.95;6.20;;;2.40;53.20;;;;;;5086584;28;35718;-77
2022/01/25 11:38:42;;;;;;;13.48;6.43;;;2.40;53.40;;;;;;5085840;28;34056;-76
2022/01/25 11:41:10;;;;;;;10.68;5.65;;;2.40;53.40;;;;;;5103780;28;34304;-77
2022/01/25 11:43:37;;;;;;;12.48;6.88;;;2.40;53.50;;;;;;5086463;28;34514;-77
2022/01/25 11:46:06;;;;;;;12.23;6.72;;;2.40;53.40;;;;;;5103967;28;35155;-77
2022/01/25 11:48:39;;;;;;;14.35;7.35;;;2.40;53.30;;;;;;5086466;28;34214;-77
2022/01/25 11:51:12;;;;;;;12.07;6.47;;;2.50;53.40;;;;;;5085819;28;34337;-77
2022/01/25 11:53:42;;;;;;;14.52;7.45;;;2.50;53.60;;;;;;5085873;28;34443;-76
2022/01/25 11:56:10;;;;;;;12.85;6.65;;;2.60;53.60;;;;;;5085880;28;36857;-76
2022/01/25 11:58:37;;;;;;;12.38;7.35;;;2.60;53.60;;;;;;5068624;28;34264;-76
2022/01/25 12:01:15;;;;;;;15.02;6.82;;;2.70;53.50;;;;;;5086242;28;34290;-77
2022/01/25 12:03:46;;;;;;;15.85;7.55;;;2.70;53.30;;;;;;5085522;28;34083;-77
2022/01/25 12:06:20;;;;;;;12.77;7.70;;;2.80;53.30;;;;;;5085874;28;35475;-76
2022/01/25 12:09:13;;;;;;;15.48;7.68;;;2.80;53.30;;;;;;5085467;28;34400;-77
2022/01/25 12:11:58;;;;;;;12.63;7.40;;;2.90;53.50;;;;;;5087751;28;34157;-76
2022/01/25 12:14:32;;;;;;;15.48;7.88;;;2.90;53.50;;;;;;5085246;28;34402;-76
2022/01/25 12:17:11;;;;;;;15.85;7.90;;;3.00;53.20;;;;;;5085902;28;35981;-76
2022/01/25 12:19:47;;;;;;;14.05;7.75;;;3.00;53.00;;;;;;5086427;28;34215;-77
2022/01/25 12:22:32;;;;;;;17.05;7.47;;;2.90;53.10;;;;;;5086944;28;34182;-76
2022/01/25 12:25:24;;;;;;;16.40;8.45;;;2.90;53.30;;;;;;5086242;28;34368;-76
2022/01/25 12:27:57;;;;;;;18.88;8.82;;;2.90;53.40;;;;;;5102922;28;34186;-77
2022/01/25 12:30:47;;;;;;;18.50;8.73;;;2.90;53.40;;;;;;5086444;28;34195;-76
2022/01/25 12:33:25;;;;;;;14.18;7.95;;;2.90;53.50;;;;;;5086622;28;34460;-76
2022/01/25 12:36:05;;;;;;;14.73;8.52;;;2.90;53.60;;;;;;5086549;28;34361;-76
2022/01/25 12:38:43;;;;;;;12.85;7.35;;;2.90;53.70;;;;;;5085808;28;35788;-76
2022/01/25 12:41:20;;;;;;;12.48;7.38;;;3.00;53.50;;;;;;5104554;28;34194;-76
2022/01/25 12:43:51;;;;;;;13.40;7.85;;;3.00;53.40;;;;;;5104404;28;34422;-76
2022/01/25 12:46:29;;;;;;;12.20;8.05;;;3.00;53.40;;;;;;5104857;28;34687;-76
2022/01/25 12:49:01;;;;;;;14.48;7.43;;;3.00;53.30;;;;;;5086032;28;36513;-76
2022/01/25 12:51:31;;;;;;;16.15;8.32;;;3.00;53.40;;;;;;5086393;28;34426;-76
2022/01/25 12:54:01;;;;;;;14.65;7.97;;;3.00;53.50;;;;;;5086450;28;34477;-76
2022/01/25 12:56:34;;;;;;;14.13;8.23;;;3.00;53.50;;;;;;5085826;28;34082;-76
2022/01/25 12:59:05;;;;;;;15.18;8.32;;;3.00;53.50;;;;;;5085671;28;36446;-76
2022/01/25 13:01:32;;;;;;;14.13;7.88;;;3.10;53.60;;;;;;5085762;28;34486;-76
2022/01/25 13:04:00;;;;;;;16.02;8.40;;;3.10;53.60;;;;;;5086308;28;34147;-76
2022/01/25 13:06:31;;;;;;;14.13;8.27;;;3.20;53.50;;;;;;5103040;28;34081;-76
2022/01/25 13:09:11;;;;;;;13.40;7.50;;;3.20;53.50;;;;;;5102913;28;35096;-76
2022/01/25 13:12:14;;;;;;;13.13;7.05;;;3.20;53.20;;;;;;5072213;28;34166;-76
2022/01/25 13:17:21;;;;;;;16.65;7.97;;;3.30;53.40;;;;;;5107570;28;34196;-76
2022/01/25 13:19:56;;;;;;;16.83;7.78;;;3.40;53.40;;;;;;5089589;28;35522;-76
2022/01/25 13:22:28;;;;;;;12.98;7.70;;;3.40;53.30;;;;;;5089688;28;34001;-76
2022/01/25 13:25:13;;;;;;;14.50;7.68;;;3.50;53.40;;;;;;5089666;28;34507;-76
2022/01/25 13:27:48;;;;;;;17.55;8.25;;;3.60;53.20;;;;;;5089431;28;34515;-76
2022/01/25 13:33:01;;;;;;;12.70;7.60;;;3.60;52.80;;;;;;5105534;28;34542;-76
2022/01/25 13:35:32;;;;;;;16.70;7.00;;;3.50;52.90;;;;;;5088925;28;34043;-76
2022/01/25 13:38:16;;;;;;;15.85;8.10;;;3.50;52.80;;;;;;5107709;28;34156;-76
2022/01/25 13:41:03;;;;;;;16.45;7.55;;;3.50;52.70;;;;;;5089240;28;35762;-76
2022/01/25 13:45:43;;;;;;;14.32;7.53;;;3.50;53.00;;;;;;5107448;28;34067;-76
2022/01/25 13:46:19;;;;;;;12.68;6.75;;;3.50;53.10;;;;;;5092168;28;34091;-75
2022/01/25 13:48:47;;;;;;;13.60;8.10;;;3.50;53.10;;;;;;5072304;28;34234;-76
2022/01/25 13:51:16;;;;;;;14.38;8.30;;;3.50;53.00;;;;;;5106360;28;34340;-75
2022/01/25 13:53:44;;;;;;;15.10;8.32;;;3.50;52.90;;;;;;5106622;28;34212;-75
2022/01/25 13:56:15;;;;;;;13.98;7.35;;;3.40;53.00;;;;;;5106300;28;34155;-75
2022/01/25 13:58:45;;;;;;;15.60;8.05;;;3.40;53.00;;;;;;5088707;28;34463;-76
2022/01/25 14:01:13;;;;;;;15.35;7.47;;;3.50;53.10;;;;;;5071721;28;35640;-75
2022/01/25 14:03:45;;;;;;;14.85;7.85;;;3.50;53.10;;;;;;5088911;28;34253;-76
2022/01/25 14:06:36;;;;;;;13.10;8.00;;;3.50;53.10;;;;;;5106141;28;34310;-76
2022/01/25 14:09:08;;;;;;;15.48;7.38;;;3.60;53.20;;;;;;5106403;28;34164;-75
2022/01/25 14:11:55;;;;;;;18.52;8.57;;;3.60;53.20;;;;;;5088321;28;35719;-75
2022/01/25 14:25:34;;;;;;;14.60;7.85;;;3.50;53.60;;;;;;5105849;28;34050;-75
2022/01/25 14:28:03;;;;;;;21.70;9.20;;;3.50;53.80;;;;;;5088371;28;34088;-76
2022/01/25 14:30:33;;;;;;;16.42;8.25;;;3.50;53.80;;;;;;5105684;28;34221;-75
2022/01/25 14:33:10;;;;;;;16.17;9.07;;;3.50;53.60;;;;;;5088363;28;35828;-75
2022/01/25 14:35:43;;;;;;;15.93;9.05;;;3.50;53.80;;;;;;5087919;28;34161;-76
2022/01/25 14:38:16;;;;;;;19.42;9.55;;;3.50;53.90;;;;;;5088535;28;34337;-76
2022/01/25 14:40:56;;;;;;;18.48;9.10;;;3.50;53.70;;;;;;5071511;28;34052;-75
2022/01/25 14:43:28;;;;;;;20.00;9.95;;;3.50;53.70;;;;;;5087622;27;35958;-76